Time;durP1;ratioP1;P1;durP2;ratioP2;P2;SDS_P1;SDS_P2;PMS_P1;PMS_P2;Temp;Humidity;BMP_temperature;BMP_pressure;BME280_temperature;BME280_humidity;BME280_pressure;Samples;Min_cycle;Max_cycle;Signal;HPM_P1;HPM_P2
2023/01/09 00:00:24;;;;;;;15.27;10.35;;;;;;;;;;5038565;28;20053;-69
2023/01/09 00:02:51;;;;;;;17.35;10.88;;;;;;;;;;5045853;28;20113;-68
2023/01/09 00:05:18;;;;;;;15.50;13.55;;;;;;;;;;5035997;28;20434;-69
2023/01/09 00:07:45;;;;;;;16.58;14.30;;;;;;;;;;5035345;28;20656;-69
2023/01/09 00:10:12;;;;;;;16.33;11.18;;;;;;;;;;5044923;28;20045;-70
2023/01/09 00:12:38;;;;;;;16.92;10.50;;;;;;;;;;5041852;28;20057;-70
2023/01/09 00:15:05;;;;;;;15.30;9.98;;;;;;;;;;5043693;28;20040;-70
2023/01/09 00:17:32;;;;;;;15.40;10.60;;;;;;;;;;5040136;28;20037;-70
2023/01/09 00:19:59;;;;;;;18.88;10.98;;;;;;;;;;5045582;28;20041;-69
2023/01/09 00:22:25;;;;;;;17.23;11.15;;;;;;;;;;5040098;28;20537;-70
2023/01/09 00:24:52;;;;;;;14.75;10.52;;;;;;;;;;5042238;28;20124;-70
2023/01/09 00:27:18;;;;;;;15.95;10.98;;;;;;;;;;5048916;28;20040;-70
2023/01/09 00:29:46;;;;;;;14.88;10.60;;;;;;;;;;5039496;28;20044;-69
2023/01/09 00:32:13;;;;;;;12.60;9.45;;;;;;;;;;5039618;28;20120;-69
2023/01/09 00:34:41;;;;;;;15.48;10.57;;;;;;;;;;5049962;28;20041;-69
2023/01/09 00:37:10;;;;;;;16.40;10.95;;;;;;;;;;5041472;28;20053;-70
2023/01/09 00:39:37;;;;;;;14.82;9.38;;;;;;;;;;5048631;28;20179;-70
2023/01/09 00:42:05;;;;;;;16.27;10.25;;;;;;;;;;5051094;28;20047;-70
2023/01/09 00:44:35;;;;;;;22.50;11.50;;;;;;;;;;5049702;28;20903;-69
2023/01/09 00:47:04;;;;;;;15.02;10.07;;;;;;;;;;5051882;28;20610;-69
2023/01/09 00:49:32;;;;;;;14.75;9.60;;;;;;;;;;5047131;28;20067;-69
2023/01/09 00:51:59;;;;;;;15.05;11.48;;;;;;;;;;5048034;28;20764;-69
2023/01/09 00:54:27;;;;;;;18.05;11.20;;;;;;;;;;5043050;28;20040;-69
2023/01/09 00:56:55;;;;;;;20.85;11.07;;;;;;;;;;5047668;28;20699;-71
2023/01/09 00:59:21;;;;;;;17.45;11.27;;;;;;;;;;5040414;28;20599;-70
2023/01/09 01:01:48;;;;;;;17.33;11.02;;;;;;;;;;5050791;28;20047;-71
2023/01/09 01:09:46;;;;;;;16.50;10.18;;;;;;;;;;5041265;28;20518;-69
2023/01/09 01:12:13;;;;;;;19.00;10.30;;;;;;;;;;5042890;28;20120;-69
2023/01/09 01:14:39;;;;;;;16.58;10.93;;;;;;;;;;5047576;28;20068;-69
2023/01/09 01:17:06;;;;;;;17.23;11.85;;;;;;;;;;5044723;28;20037;-69
2023/01/09 01:19:34;;;;;;;15.88;10.98;;;;;;;;;;5049794;28;20044;-69
2023/01/09 01:22:00;;;;;;;18.60;10.77;;;;;;;;;;5056195;28;20040;-70
2023/01/09 01:24:27;;;;;;;17.45;11.52;;;;;;;;;;5048786;28;20055;-69
2023/01/09 01:26:54;;;;;;;19.10;11.35;;;;;;;;;;5043913;28;20041;-69
2023/01/09 01:29:21;;;;;;;20.85;12.23;;;;;;;;;;5039781;28;20060;-69
2023/01/09 01:31:48;;;;;;;18.02;13.02;;;;;;;;;;5038854;28;20574;-69
2023/01/09 01:34:14;;;;;;;18.33;12.75;;;;;;;;;;5044891;28;20049;-70
2023/01/09 01:36:41;;;;;;;15.02;10.88;;;;;;;;;;5039270;28;20132;-70
2023/01/09 01:39:07;;;;;;;20.15;11.38;;;;;;;;;;5049388;28;20033;-70
2023/01/09 01:41:34;;;;;;;18.10;12.93;;;;;;;;;;5044438;28;20029;-70
2023/01/09 01:44:02;;;;;;;17.45;11.68;;;;;;;;;;5041641;28;20061;-70
2023/01/09 01:46:30;;;;;;;16.65;13.25;;;;;;;;;;5042480;28;20644;-70
2023/01/09 01:48:57;;;;;;;18.92;11.10;;;;;;;;;;5045386;28;20048;-70
2023/01/09 01:51:25;;;;;;;21.98;14.13;;;;;;;;;;5041538;28;20052;-71
2023/01/09 01:53:53;;;;;;;19.05;12.52;;;;;;;;;;5042071;28;20076;-70
2023/01/09 01:56:26;;;;;;;20.13;12.65;;;;;;;;;;5052654;28;20048;-70
2023/01/09 01:59:04;;;;;;;18.42;11.75;;;;;;;;;;5041175;28;20052;-70
2023/01/09 02:01:31;;;;;;;20.75;12.95;;;;;;;;;;5043344;28;20120;-70
2023/01/09 02:04:00;;;;;;;19.60;12.30;;;;;;;;;;5041889;28;20047;-70
2023/01/09 02:06:28;;;;;;;22.10;14.95;;;;;;;;;;5044688;28;20060;-70
2023/01/09 02:08:56;;;;;;;23.05;14.18;;;;;;;;;;5040092;28;20075;-69
2023/01/09 02:11:22;;;;;;;23.20;13.55;;;;;;;;;;5048624;28;20042;-70
2023/01/09 02:13:49;;;;;;;24.50;14.93;;;;;;;;;;5042150;28;20129;-70
2023/01/09 02:16:35;;;;;;;24.25;15.57;;;;;;;;;;5041896;28;20163;-70
2023/01/09 02:19:24;;;;;;;42.63;21.55;;;;;;;;;;5038318;28;20099;-68
2023/01/09 02:22:11;;;;;;;33.35;22.02;;;;;;;;;;5044403;28;20490;-68
2023/01/09 02:24:44;;;;;;;34.22;19.30;;;;;;;;;;5025768;28;20065;-69
2023/01/09 02:27:29;;;;;;;36.90;21.90;;;;;;;;;;5048431;28;20518;-69
2023/01/09 02:30:14;;;;;;;31.60;17.38;;;;;;;;;;5039651;28;20053;-69
2023/01/09 02:33:01;;;;;;;29.48;15.85;;;;;;;;;;5043009;28;20094;-70
2023/01/09 02:35:30;;;;;;;31.45;17.13;;;;;;;;;;5041092;28;20182;-69
2023/01/09 02:38:02;;;;;;;28.33;16.58;;;;;;;;;;5044571;28;20029;-69
2023/01/09 02:40:29;;;;;;;35.45;17.67;;;;;;;;;;5039519;28;20820;-69
2023/01/09 02:42:57;;;;;;;31.90;18.92;;;;;;;;;;5042732;28;20522;-69
2023/01/09 02:45:24;;;;;;;32.05;16.48;;;;;;;;;;5037013;28;20033;-69
2023/01/09 02:47:50;;;;;;;31.30;18.90;;;;;;;;;;5044880;28;20099;-68
2023/01/09 02:50:23;;;;;;;31.15;17.98;;;;;;;;;;5038113;28;20746;-69
2023/01/09 02:52:49;;;;;;;38.50;21.27;;;;;;;;;;5042683;28;20577;-69
2023/01/09 02:55:33;;;;;;;36.92;21.80;;;;;;;;;;5042810;28;20134;-69
2023/01/09 02:58:18;;;;;;;39.80;22.10;;;;;;;;;;5040363;28;20049;-69
2023/01/09 03:00:54;;;;;;;42.47;27.50;;;;;;;;;;5040544;28;20157;-69
2023/01/09 03:03:37;;;;;;;42.72;23.52;;;;;;;;;;5040271;28;20049;-68
2023/01/09 03:06:03;;;;;;;38.33;22.27;;;;;;;;;;5043668;28;20521;-68
2023/01/09 03:08:33;;;;;;;43.78;23.58;;;;;;;;;;5042319;28;20045;-68
2023/01/09 03:11:03;;;;;;;42.35;23.70;;;;;;;;;;5038093;28;20924;-69
2023/01/09 03:13:50;;;;;;;40.15;22.55;;;;;;;;;;5041921;28;20055;-69
2023/01/09 03:16:20;;;;;;;36.28;21.52;;;;;;;;;;5041279;28;20080;-69
2023/01/09 03:18:47;;;;;;;39.35;22.02;;;;;;;;;;5041405;28;20061;-69
2023/01/09 03:21:15;;;;;;;39.47;23.42;;;;;;;;;;5041174;28;20045;-69
2023/01/09 03:23:47;;;;;;;39.20;23.73;;;;;;;;;;5040812;28;20518;-69
2023/01/09 03:26:14;;;;;;;60.22;30.17;;;;;;;;;;5046744;28;20136;-69
2023/01/09 03:28:41;;;;;;;39.83;23.52;;;;;;;;;;5047460;28;20040;-68
2023/01/09 03:31:07;;;;;;;80.82;43.67;;;;;;;;;;5038324;28;20518;-68
2023/01/09 03:33:34;;;;;;;55.95;31.58;;;;;;;;;;5036484;28;20048;-68
2023/01/09 03:36:01;;;;;;;53.58;26.63;;;;;;;;;;5042841;28;20075;-69
2023/01/09 03:38:28;;;;;;;45.60;25.02;;;;;;;;;;5042488;28;20155;-69
2023/01/09 03:40:54;;;;;;;33.65;20.42;;;;;;;;;;5044452;28;20036;-69
2023/01/09 03:43:21;;;;;;;36.85;20.50;;;;;;;;;;5051578;28;20041;-70
2023/01/09 03:45:47;;;;;;;35.08;22.40;;;;;;;;;;5045865;28;20132;-69
2023/01/09 03:48:14;;;;;;;33.20;20.23;;;;;;;;;;5037522;28;20041;-69
2023/01/09 03:50:46;;;;;;;36.97;22.52;;;;;;;;;;5040808;28;20060;-70
2023/01/09 03:53:13;;;;;;;37.67;23.88;;;;;;;;;;5044300;28;20133;-69
2023/01/09 03:55:42;;;;;;;33.28;20.13;;;;;;;;;;5039158;28;20737;-70
2023/01/09 03:58:09;;;;;;;36.55;22.88;;;;;;;;;;5047615;28;20040;-70
2023/01/09 04:00:35;;;;;;;33.78;21.25;;;;;;;;;;5043652;28;20098;-70
2023/01/09 04:03:02;;;;;;;38.97;25.48;;;;;;;;;;5049815;28;20053;-70
2023/01/09 04:05:28;;;;;;;30.95;20.48;;;;;;;;;;5050478;28;20041;-69
2023/01/09 04:07:55;;;;;;;35.42;22.70;;;;;;;;;;5047219;28;20508;-69
2023/01/09 04:10:22;;;;;;;35.22;21.73;;;;;;;;;;5041103;28;20193;-69
2023/01/09 04:12:48;;;;;;;41.60;22.05;;;;;;;;;;5056141;28;20040;-69
2023/01/09 04:15:15;;;;;;;41.13;21.02;;;;;;;;;;5042118;28;20116;-68
2023/01/09 04:17:42;;;;;;;34.38;20.25;;;;;;;;;;5037215;28;20041;-70
2023/01/09 04:20:09;;;;;;;35.50;24.88;;;;;;;;;;5048379;28;20433;-70
2023/01/09 04:22:35;;;;;;;34.38;19.77;;;;;;;;;;5044901;28;20048;-70
2023/01/09 04:25:02;;;;;;;33.22;19.60;;;;;;;;;;5045580;28;20048;-70
2023/01/09 04:27:29;;;;;;;32.78;18.58;;;;;;;;;;5046711;28;20052;-70
2023/01/09 04:29:56;;;;;;;33.83;20.02;;;;;;;;;;5048933;28;20052;-70
2023/01/09 04:32:22;;;;;;;34.35;19.83;;;;;;;;;;5043696;28;20102;-71
2023/01/09 04:34:49;;;;;;;28.63;17.08;;;;;;;;;;5046609;28;20506;-70
2023/01/09 04:37:16;;;;;;;30.73;18.25;;;;;;;;;;5045091;28;20044;-70
2023/01/09 04:39:42;;;;;;;32.08;19.42;;;;;;;;;;5047195;28;20059;-70
2023/01/09 04:42:09;;;;;;;35.45;20.00;;;;;;;;;;5048306;28;20107;-68
2023/01/09 04:44:36;;;;;;;35.88;20.42;;;;;;;;;;5047371;28;20506;-70
2023/01/09 04:47:03;;;;;;;35.75;20.50;;;;;;;;;;5044391;28;20069;-69
2023/01/09 04:49:29;;;;;;;43.70;28.27;;;;;;;;;;5045724;28;20430;-70
2023/01/09 04:51:56;;;;;;;36.03;22.00;;;;;;;;;;5043965;28;20053;-69
2023/01/09 04:54:23;;;;;;;38.72;22.42;;;;;;;;;;5045972;28;20110;-70
2023/01/09 04:56:51;;;;;;;;;;;;;;;;;;5045340;28;20084;-70
2023/01/09 04:59:18;;;;;;;30.50;19.70;;;;;;;;;;5045793;28;19928;-71
2023/01/09 05:01:45;;;;;;;43.55;26.67;;;;;;;;;;5051288;28;20730;-71
2023/01/09 05:04:13;;;;;;;32.25;22.42;;;;;;;;;;5050382;28;20045;-70
2023/01/09 05:06:39;;;;;;;38.58;23.55;;;;;;;;;;5047250;28;20036;-72
2023/01/09 05:09:06;;;;;;;42.25;22.52;;;;;;;;;;5040881;28;20538;-72
2023/01/09 05:11:33;;;;;;;42.22;23.35;;;;;;;;;;5046220;28;20049;-72
2023/01/09 05:13:59;;;;;;;32.05;20.05;;;;;;;;;;5046092;28;20102;-71
2023/01/09 05:16:26;;;;;;;40.58;22.20;;;;;;;;;;5048025;28;20044;-70
2023/01/09 05:18:55;;;;;;;37.38;22.52;;;;;;;;;;5042994;28;20139;-71
2023/01/09 05:21:22;;;;;;;36.97;22.33;;;;;;;;;;5040989;28;20047;-70
2023/01/09 05:23:49;;;;;;;36.20;22.98;;;;;;;;;;5046100;28;20044;-71
2023/01/09 05:26:16;;;;;;;60.10;40.03;;;;;;;;;;5039996;28;20037;-70
2023/01/09 05:28:42;;;;;;;46.33;27.83;;;;;;;;;;5049129;28;20048;-69
2023/01/09 05:31:09;;;;;;;44.78;24.20;;;;;;;;;;5046925;28;20108;-71
2023/01/09 05:33:36;;;;;;;34.83;24.30;;;;;;;;;;5040845;28;20132;-68
2023/01/09 05:36:02;;;;;;;35.75;23.65;;;;;;;;;;5045013;28;20052;-67
2023/01/09 05:38:29;;;;;;;41.08;21.88;;;;;;;;;;5039192;28;20702;-71
2023/01/09 05:40:55;;;;;;;36.78;24.33;;;;;;;;;;5040826;28;20037;-68
2023/01/09 05:43:22;;;;;;;46.50;29.60;;;;;;;;;;5037811;28;20049;-69
2023/01/09 05:45:49;;;;;;;44.33;25.08;;;;;;;;;;5039267;28;20048;-68
2023/01/09 05:48:15;;;;;;;44.97;25.80;;;;;;;;;;5046094;28;20044;-69
2023/01/09 05:50:43;;;;;;;48.33;26.08;;;;;;;;;;5040126;28;20148;-68
2023/01/09 05:53:10;;;;;;;49.97;28.83;;;;;;;;;;5041327;28;20060;-72
2023/01/09 05:55:37;;;;;;;55.22;33.78;;;;;;;;;;5051775;28;20684;-73
2023/01/09 05:58:05;;;;;;;45.30;30.23;;;;;;;;;;5047888;28;20127;-71
2023/01/09 06:00:32;;;;;;;46.78;28.83;;;;;;;;;;5045873;28;20661;-73
2023/01/09 06:02:59;;;;;;;51.88;30.83;;;;;;;;;;5040428;28;20045;-70
2023/01/09 06:05:26;;;;;;;49.60;28.48;;;;;;;;;;5042552;28;20045;-67
2023/01/09 06:07:52;;;;;;;48.42;31.80;;;;;;;;;;5034748;28;20045;-70
2023/01/09 06:10:21;;;;;;;52.03;31.00;;;;;;;;;;5044159;28;20060;-67
2023/01/09 06:12:49;;;;;;;49.55;31.05;;;;;;;;;;5039411;28;20065;-68
2023/01/09 06:15:16;;;;;;;48.50;30.15;;;;;;;;;;5043163;28;20053;-68
2023/01/09 06:17:43;;;;;;;46.38;29.00;;;;;;;;;;5036516;28;20052;-69
2023/01/09 06:20:10;;;;;;;50.40;31.35;;;;;;;;;;5037456;28;20053;-68
2023/01/09 06:22:37;;;;;;;51.00;29.95;;;;;;;;;;5039955;28;20072;-69
2023/01/09 06:25:04;;;;;;;53.60;36.17;;;;;;;;;;5047004;28;20310;-69
2023/01/09 06:27:31;;;;;;;50.45;32.10;;;;;;;;;;5049519;28;20041;-69
2023/01/09 06:29:57;;;;;;;57.88;34.40;;;;;;;;;;5040119;28;20182;-68
2023/01/09 06:32:24;;;;;;;98.82;55.80;;;;;;;;;;5045643;28;20401;-69
2023/01/09 06:34:50;;;;;;;68.65;39.65;;;;;;;;;;5037027;28;20059;-69
2023/01/09 06:37:17;;;;;;;55.85;35.50;;;;;;;;;;5041677;28;20041;-69
2023/01/09 06:39:44;;;;;;;51.97;30.70;;;;;;;;;;5040347;28;20068;-68
2023/01/09 06:42:10;;;;;;;76.43;41.97;;;;;;;;;;5041767;28;20029;-67
2023/01/09 06:44:37;;;;;;;60.28;36.35;;;;;;;;;;5044969;28;20042;-67
2023/01/09 06:47:04;;;;;;;69.45;39.22;;;;;;;;;;5043079;28;20049;-68
2023/01/09 06:49:30;;;;;;;71.75;41.10;;;;;;;;;;5039003;28;20102;-68
2023/01/09 06:51:57;;;;;;;53.83;31.17;;;;;;;;;;5045164;28;20061;-67
2023/01/09 06:54:24;;;;;;;44.22;23.35;;;;;;;;;;5038350;28;20108;-68
2023/01/09 06:56:55;;;;;;;64.07;37.60;;;;;;;;;;5030974;28;20525;-68
2023/01/09 06:59:21;;;;;;;66.93;37.03;;;;;;;;;;5045968;28;20086;-69
2023/01/09 07:01:48;;;;;;;55.78;31.63;;;;;;;;;;5042276;28;20444;-68
2023/01/09 07:04:16;;;;;;;47.20;29.33;;;;;;;;;;5041870;28;20132;-70
2023/01/09 07:06:46;;;;;;;49.88;28.77;;;;;;;;;;5037005;28;20781;-69
2023/01/09 07:09:13;;;;;;;53.42;30.70;;;;;;;;;;5036007;28;20074;-68
2023/01/09 07:11:39;;;;;;;50.55;29.63;;;;;;;;;;5036264;28;20159;-68
2023/01/09 07:14:06;;;;;;;63.55;36.38;;;;;;;;;;5038867;28;20044;-68
2023/01/09 07:16:33;;;;;;;79.28;46.05;;;;;;;;;;5034947;28;20041;-68
2023/01/09 07:19:00;;;;;;;113.60;61.10;;;;;;;;;;5043887;28;20530;-69
2023/01/09 07:21:26;;;;;;;74.38;40.85;;;;;;;;;;5036754;28;20702;-69
2023/01/09 07:23:53;;;;;;;69.47;35.83;;;;;;;;;;5037609;28;20150;-68
2023/01/09 07:26:20;;;;;;;61.63;31.52;;;;;;;;;;5046638;28;20698;-68
2023/01/09 07:28:46;;;;;;;60.88;32.33;;;;;;;;;;5041936;28;20099;-68
2023/01/09 07:31:13;;;;;;;68.63;34.75;;;;;;;;;;5038999;28;20041;-69
2023/01/09 07:33:40;;;;;;;52.10;28.23;;;;;;;;;;5033058;28;20036;-68
2023/01/09 07:36:07;;;;;;;54.20;27.30;;;;;;;;;;5041419;28;20048;-69
2023/01/09 07:38:35;;;;;;;56.47;32.80;;;;;;;;;;5039071;28;20702;-68
2023/01/09 07:41:02;;;;;;;56.08;29.30;;;;;;;;;;5039404;28;20037;-68
2023/01/09 07:43:29;;;;;;;59.58;32.72;;;;;;;;;;5042638;28;20037;-69
2023/01/09 07:45:56;;;;;;;46.30;27.13;;;;;;;;;;5041165;28;20048;-67
2023/01/09 07:48:22;;;;;;;38.03;22.55;;;;;;;;;;5042894;28;20070;-68
2023/01/09 07:50:49;;;;;;;46.40;23.48;;;;;;;;;;5047461;28;20052;-69
2023/01/09 07:53:15;;;;;;;48.30;25.98;;;;;;;;;;5043033;28;20044;-67
2023/01/09 07:55:42;;;;;;;43.67;24.20;;;;;;;;;;5047460;28;20718;-69
2023/01/09 07:58:09;;;;;;;40.70;22.60;;;;;;;;;;5040852;28;21285;-70
2023/01/09 08:00:35;;;;;;;41.67;21.05;;;;;;;;;;5039153;28;20064;-69
2023/01/09 08:03:02;;;;;;;39.70;21.25;;;;;;;;;;5043558;28;20057;-68
2023/01/09 08:05:29;;;;;;;36.67;19.83;;;;;;;;;;5039100;28;20053;-68
2023/01/09 08:07:55;;;;;;;40.67;21.95;;;;;;;;;;5033567;28;20111;-68
2023/01/09 08:10:22;;;;;;;35.13;17.95;;;;;;;;;;5040789;28;20518;-68
2023/01/09 08:12:49;;;;;;;35.80;17.40;;;;;;;;;;5038640;28;20048;-69
2023/01/09 08:15:16;;;;;;;32.47;19.25;;;;;;;;;;5037950;28;20055;-67
2023/01/09 08:17:43;;;;;;;31.23;17.60;;;;;;;;;;5038298;28;20052;-67
2023/01/09 08:20:11;;;;;;;29.38;16.55;;;;;;;;;;5035819;28;20037;-69
2023/01/09 08:22:41;;;;;;;36.33;18.83;;;;;;;;;;5036531;28;20167;-68
2023/01/09 08:25:09;;;;;;;26.95;16.17;;;;;;;;;;5038371;28;20037;-68
2023/01/09 08:27:38;;;;;;;34.03;21.55;;;;;;;;;;5045913;28;20624;-69
2023/01/09 08:30:05;;;;;;;33.63;18.45;;;;;;;;;;5052944;28;20664;-68
2023/01/09 08:32:31;;;;;;;26.98;14.18;;;;;;;;;;5046072;28;20047;-68
2023/01/09 08:34:58;;;;;;;27.60;16.00;;;;;;;;;;5038458;28;20045;-68
2023/01/09 08:37:25;;;;;;;29.05;15.13;;;;;;;;;;5035614;28;20139;-68
2023/01/09 08:39:52;;;;;;;27.98;15.88;;;;;;;;;;5038613;28;20040;-68
2023/01/09 08:47:49;;;;;;;31.05;16.27;;;;;;;;;;5044357;28;20048;-69
2023/01/09 08:50:17;;;;;;;29.02;14.13;;;;;;;;;;5042594;28;20040;-69
2023/01/09 08:52:44;;;;;;;24.25;15.07;;;;;;;;;;5040193;28;20526;-68
2023/01/09 08:55:10;;;;;;;28.92;16.55;;;;;;;;;;5054967;28;20047;-68
2023/01/09 08:57:39;;;;;;;35.45;20.00;;;;;;;;;;5042473;28;20045;-67
2023/01/09 09:00:06;;;;;;;34.40;18.58;;;;;;;;;;5042675;28;20698;-68
2023/01/09 09:02:33;;;;;;;32.55;18.08;;;;;;;;;;5041722;28;20044;-68
2023/01/09 09:04:59;;;;;;;18.63;11.20;;;;;;;;;;5040561;28;20041;-68
2023/01/09 09:07:26;;;;;;;21.27;12.75;;;;;;;;;;5044202;28;20072;-68
2023/01/09 09:09:53;;;;;;;19.55;11.30;;;;;;;;;;5033441;28;20763;-68
2023/01/09 09:12:20;;;;;;;23.00;12.93;;;;;;;;;;5047497;28;20041;-68
2023/01/09 09:17:32;;;;;;;17.65;11.30;;;;;;;;;;5044334;28;20056;-67
2023/01/09 09:19:59;;;;;;;21.30;13.27;;;;;;;;;;5051971;28;20434;-68
2023/01/09 09:22:26;;;;;;;19.05;14.73;;;;;;;;;;5046001;28;20668;-68
2023/01/09 09:24:52;;;;;;;17.25;11.25;;;;;;;;;;5042846;28;20617;-68
2023/01/09 09:27:20;;;;;;;19.58;11.30;;;;;;;;;;5046169;28;20041;-69
2023/01/09 09:29:47;;;;;;;14.73;9.50;;;;;;;;;;5043142;28;20142;-69
2023/01/09 09:32:13;;;;;;;18.08;11.38;;;;;;;;;;5048685;28;20094;-68
2023/01/09 09:34:40;;;;;;;16.10;10.60;;;;;;;;;;5041621;28;20036;-67
2023/01/09 09:37:07;;;;;;;17.55;11.30;;;;;;;;;;5047989;28;20041;-68
2023/01/09 09:39:34;;;;;;;16.95;11.10;;;;;;;;;;5047037;28;20053;-67
2023/01/09 09:45:03;;;;;;;16.20;9.77;;;;;;;;;;5046011;28;20041;-69
2023/01/09 09:47:39;;;;;;;19.73;12.45;;;;;;;;;;5045235;28;20044;-69
2023/01/09 09:50:18;;;;;;;18.95;12.90;;;;;;;;;;5038928;28;20058;-69
2023/01/09 09:53:00;;;;;;;17.73;11.75;;;;;;;;;;5038978;28;20068;-69
2023/01/09 09:55:30;;;;;;;17.65;11.23;;;;;;;;;;5042181;28;20032;-69
2023/01/09 09:57:59;;;;;;;17.33;12.65;;;;;;;;;;5043377;28;20052;-70
2023/01/09 10:00:25;;;;;;;18.60;12.65;;;;;;;;;;5047183;28;20049;-69
2023/01/09 10:02:55;;;;;;;18.98;15.13;;;;;;;;;;5042026;28;20056;-68
2023/01/09 10:05:26;;;;;;;18.73;12.02;;;;;;;;;;5045294;28;20110;-69
2023/01/09 10:07:52;;;;;;;14.70;9.73;;;;;;;;;;5040410;28;20526;-70
2023/01/09 10:10:31;;;;;;;19.30;13.55;;;;;;;;;;5048865;28;20059;-69
2023/01/09 10:12:59;;;;;;;15.18;10.18;;;;;;;;;;5043594;28;20045;-69
2023/01/09 10:15:41;;;;;;;15.98;11.02;;;;;;;;;;5040147;28;20110;-69
2023/01/09 10:18:17;;;;;;;16.00;14.25;;;;;;;;;;5040465;28;20769;-69
2023/01/09 10:20:46;;;;;;;15.80;13.65;;;;;;;;;;5048913;28;20738;-68
2023/01/09 10:23:13;;;;;;;14.73;10.05;;;;;;;;;;5041331;28;20098;-69
2023/01/09 10:25:45;;;;;;;17.92;10.38;;;;;;;;;;5045833;28;20779;-69
2023/01/09 10:28:12;;;;;;;13.30;11.52;;;;;;;;;;5049165;28;21432;-69
2023/01/09 10:30:41;;;;;;;13.52;9.55;;;;;;;;;;5042406;28;20044;-68
2023/01/09 10:33:14;;;;;;;15.95;11.25;;;;;;;;;;5037293;28;20118;-68
2023/01/09 10:35:43;;;;;;;15.25;9.98;;;;;;;;;;5039992;28;20723;-69
2023/01/09 10:38:16;;;;;;;14.80;9.90;;;;;;;;;;5041957;28;20778;-69
2023/01/09 10:40:47;;;;;;;15.75;10.95;;;;;;;;;;5039316;28;20045;-69
2023/01/09 10:43:19;;;;;;;17.75;9.38;;;;;;;;;;5038519;28;20761;-69
2023/01/09 10:45:51;;;;;;;15.43;9.48;;;;;;;;;;5041517;28;20550;-69
2023/01/09 10:48:22;;;;;;;15.27;9.20;;;;;;;;;;5040100;28;20755;-68
2023/01/09 10:50:50;;;;;;;15.88;8.93;;;;;;;;;;5035752;28;20710;-67
2023/01/09 10:53:21;;;;;;;14.85;8.73;;;;;;;;;;5042653;28;20067;-68
2023/01/09 10:55:50;;;;;;;15.38;12.32;;;;;;;;;;5038832;28;20067;-68
2023/01/09 10:58:18;;;;;;;18.25;10.23;;;;;;;;;;5042410;28;20435;-69
2023/01/09 11:00:46;;;;;;;15.02;10.13;;;;;;;;;;5045471;28;20048;-68
2023/01/09 11:03:14;;;;;;;14.50;9.93;;;;;;;;;;5045151;28;20032;-68
2023/01/09 11:05:41;;;;;;;13.90;9.85;;;;;;;;;;5038540;28;20094;-68
2023/01/09 11:08:07;;;;;;;13.30;8.55;;;;;;;;;;5044570;28;20044;-66
2023/01/09 11:10:46;;;;;;;15.70;10.15;;;;;;;;;;5054238;28;20040;-68
2023/01/09 11:13:24;;;;;;;15.82;10.75;;;;;;;;;;5041097;28;20649;-68
2023/01/09 11:16:13;;;;;;;14.43;9.05;;;;;;;;;;5031810;28;20056;-68
2023/01/09 11:18:51;;;;;;;16.05;9.80;;;;;;;;;;5037327;28;20131;-68
2023/01/09 11:21:23;;;;;;;16.08;10.65;;;;;;;;;;5042442;28;20545;-67
2023/01/09 11:23:50;;;;;;;17.58;11.05;;;;;;;;;;5038301;28;20110;-68
2023/01/09 11:26:21;;;;;;;16.20;12.65;;;;;;;;;;5044028;28;20044;-68
2023/01/09 11:29:03;;;;;;;17.90;11.25;;;;;;;;;;5040191;28;20635;-69
2023/01/09 11:31:30;;;;;;;19.63;12.48;;;;;;;;;;5041596;28;20040;-68
2023/01/09 11:33:56;;;;;;;17.00;10.52;;;;;;;;;;5036296;28;20073;-68
2023/01/09 11:36:24;;;;;;;17.27;14.65;;;;;;;;;;5042228;28;20785;-69
2023/01/09 11:38:52;;;;;;;18.33;11.60;;;;;;;;;;5037775;28;20049;-68
2023/01/09 11:41:23;;;;;;;15.75;9.77;;;;;;;;;;5042110;28;20064;-67
2023/01/09 11:43:51;;;;;;;15.35;9.55;;;;;;;;;;5035146;28;20048;-68
2023/01/09 11:46:33;;;;;;;14.82;9.68;;;;;;;;;;5042109;28;20055;-69
2023/01/09 11:49:00;;;;;;;14.63;9.57;;;;;;;;;;5035505;28;20045;-70
2023/01/09 11:51:29;;;;;;;17.38;11.13;;;;;;;;;;5046014;28;20506;-69
2023/01/09 11:53:59;;;;;;;17.25;9.55;;;;;;;;;;5045335;28;20119;-68
2023/01/09 11:56:26;;;;;;;16.33;10.82;;;;;;;;;;5041078;28;20037;-69
2023/01/09 11:58:53;;;;;;;14.35;9.73;;;;;;;;;;5041673;28;20033;-69
2023/01/09 12:01:39;;;;;;;17.85;9.77;;;;;;;;;;5044402;28;20045;-69
2023/01/09 12:04:41;;;;;;;16.75;10.02;;;;;;;;;;5036666;28;20037;-69
2023/01/09 12:07:22;;;;;;;14.80;9.48;;;;;;;;;;4994680;28;20459;-69
2023/01/09 12:10:11;;;;;;;11.20;7.63;;;;;;;;;;5030969;28;21247;-69
2023/01/09 12:12:51;;;;;;;13.50;8.80;;;;;;;;;;5037670;28;20094;-69
2023/01/09 12:15:47;;;;;;;12.77;7.80;;;;;;;;;;5047963;28;20040;-68
2023/01/09 12:18:22;;;;;;;12.27;7.25;;;;;;;;;;5038230;28;20041;-69
2023/01/09 12:20:52;;;;;;;15.10;7.25;;;;;;;;;;5047493;28;20039;-69
2023/01/09 12:23:40;;;;;;;12.82;8.52;;;;;;;;;;5047541;28;20753;-69
2023/01/09 12:26:29;;;;;;;17.67;11.00;;;;;;;;;;5040270;28;21222;-69
2023/01/09 12:29:04;;;;;;;12.30;7.97;;;;;;;;;;5040573;28;20106;-70
2023/01/09 12:31:49;;;;;;;13.55;8.57;;;;;;;;;;5046225;28;20045;-69
2023/01/09 12:34:28;;;;;;;12.55;8.25;;;;;;;;;;5044472;28;20103;-69
2023/01/09 12:37:04;;;;;;;11.55;7.05;;;;;;;;;;5041834;28;20146;-69
2023/01/09 12:39:47;;;;;;;12.98;7.55;;;;;;;;;;5046464;28;20045;-69
2023/01/09 12:42:22;;;;;;;12.45;8.13;;;;;;;;;;5040291;28;20052;-69
2023/01/09 12:45:02;;;;;;;11.05;7.22;;;;;;;;;;5046803;28;20039;-69
2023/01/09 12:47:28;;;;;;;14.45;8.63;;;;;;;;;;5045299;28;20052;-69
2023/01/09 12:50:04;;;;;;;13.05;7.25;;;;;;;;;;5044830;28;20049;-69
2023/01/09 12:52:35;;;;;;;14.85;7.47;;;;;;;;;;5043514;28;20827;-69
2023/01/09 12:55:07;;;;;;;13.18;7.07;;;;;;;;;;5050928;28;20105;-69
2023/01/09 12:57:39;;;;;;;13.10;7.53;;;;;;;;;;5042442;28;20110;-69
2023/01/09 13:00:14;;;;;;;15.32;8.65;;;;;;;;;;5047088;28;20049;-68
2023/01/09 13:02:43;;;;;;;12.98;8.77;;;;;;;;;;5042731;28;20129;-69
2023/01/09 13:05:14;;;;;;;16.55;7.88;;;;;;;;;;5042668;28;20088;-69
2023/01/09 13:07:43;;;;;;;15.73;7.60;;;;;;;;;;5050885;28;20120;-68
2023/01/09 13:10:26;;;;;;;14.32;7.30;;;;;;;;;;5043540;28;20067;-68
2023/01/09 13:12:53;;;;;;;14.52;7.60;;;;;;;;;;5046044;28;20077;-68
2023/01/09 13:15:19;;;;;;;13.60;7.97;;;;;;;;;;5040736;28;20080;-68
2023/01/09 13:17:49;;;;;;;14.77;8.40;;;;;;;;;;5046362;28;20713;-68
2023/01/09 13:20:27;;;;;;;14.10;7.80;;;;;;;;;;5042431;28;20714;-68
2023/01/09 13:22:54;;;;;;;17.63;8.65;;;;;;;;;;5045624;28;20044;-68
2023/01/09 13:25:32;;;;;;;15.57;9.10;;;;;;;;;;5042730;28;20611;-69
2023/01/09 13:28:00;;;;;;;15.98;9.55;;;;;;;;;;5041677;28;20568;-67
2023/01/09 13:30:27;;;;;;;17.02;9.93;;;;;;;;;;5043423;28;20045;-68
2023/01/09 13:32:53;;;;;;;13.98;8.65;;;;;;;;;;5044076;28;20048;-69
2023/01/09 13:35:20;;;;;;;14.35;7.47;;;;;;;;;;5037303;28;20429;-68
2023/01/09 13:37:51;;;;;;;16.60;9.57;;;;;;;;;;5041744;28;20099;-69
2023/01/09 13:40:18;;;;;;;17.42;12.70;;;;;;;;;;5042783;28;20398;-69
2023/01/09 13:43:15;;;;;;;16.05;8.60;;;;;;;;;;5043666;28;20592;-70
2023/01/09 13:45:43;;;;;;;16.52;8.82;;;;;;;;;;5041220;28;20530;-69
2023/01/09 13:48:10;;;;;;;15.40;9.00;;;;;;;;;;5044486;28;20045;-69
2023/01/09 13:50:37;;;;;;;18.45;10.15;;;;;;;;;;5045138;28;20098;-69
2023/01/09 13:53:16;;;;;;;16.88;9.73;;;;;;;;;;5041421;28;20052;-68
2023/01/09 13:55:58;;;;;;;16.88;10.07;;;;;;;;;;5043385;28;20461;-68
2023/01/09 13:58:29;;;;;;;17.35;9.90;;;;;;;;;;5039730;28;20048;-68
2023/01/09 14:00:57;;;;;;;18.33;10.43;;;;;;;;;;5048997;28;20703;-68
2023/01/09 14:03:24;;;;;;;16.13;9.45;;;;;;;;;;5044046;28;20037;-68
2023/01/09 14:05:51;;;;;;;15.43;9.55;;;;;;;;;;5046792;28;20102;-69
2023/01/09 14:08:20;;;;;;;13.23;7.18;;;;;;;;;;5047762;28;20054;-68
2023/01/09 14:10:51;;;;;;;13.35;9.40;;;;;;;;;;5046308;28;20048;-69
2023/01/09 14:13:30;;;;;;;13.40;8.10;;;;;;;;;;5043670;28;20033;-69
2023/01/09 14:16:04;;;;;;;13.15;7.68;;;;;;;;;;5040272;28;20052;-69
2023/01/09 14:18:31;;;;;;;;;;;;;;;;;;5046727;28;20929;-68
2023/01/09 14:21:02;;;;;;;13.70;7.18;;;;;;;;;;5048256;28;19925;-68
2023/01/09 14:23:46;;;;;;;15.50;7.97;;;;;;;;;;5041824;28;20040;-69
2023/01/09 14:26:20;;;;;;;16.67;9.90;;;;;;;;;;5047068;28;20486;-68
2023/01/09 14:28:47;;;;;;;16.10;9.05;;;;;;;;;;5037853;28;20575;-69
2023/01/09 14:31:30;;;;;;;15.40;8.45;;;;;;;;;;5042746;28;20048;-69
2023/01/09 14:34:15;;;;;;;15.15;7.90;;;;;;;;;;5034114;28;20068;-67
2023/01/09 14:36:57;;;;;;;19.83;9.10;;;;;;;;;;5037046;28;20068;-67
2023/01/09 14:39:24;;;;;;;17.80;13.40;;;;;;;;;;5042671;28;20590;-68
2023/01/09 14:42:04;;;;;;;16.48;9.35;;;;;;;;;;5040581;28;20048;-69
2023/01/09 14:44:34;;;;;;;15.00;8.48;;;;;;;;;;5039398;28;20048;-69
2023/01/09 14:47:09;;;;;;;17.77;13.18;;;;;;;;;;5040308;28;20499;-68
2023/01/09 14:49:39;;;;;;;13.45;7.95;;;;;;;;;;5038722;28;20033;-69
2023/01/09 14:52:14;;;;;;;17.25;9.20;;;;;;;;;;5037977;28;20134;-69